Time;durP1;ratioP1;P1;durP2;ratioP2;P2;SDS_P1;SDS_P2;PMS_P1;PMS_P2;Temp;Humidity;BMP_temperature;BMP_pressure;BME280_temperature;BME280_humidity;BME280_pressure;Samples;Min_cycle;Max_cycle;Signal;HPM_P1;HPM_P2
2022/06/24 00:01:54;;;;;;;24.58;22.27;;;22.30;99.90;;;;;;5045048;28;20048;-45
2022/06/24 00:04:25;;;;;;;24.38;22.17;;;22.20;99.90;;;;;;5044627;28;20792;-45
2022/06/24 00:06:51;;;;;;;26.40;23.33;;;22.10;99.90;;;;;;5044776;28;20074;-49
2022/06/24 00:09:18;;;;;;;27.60;24.98;;;22.10;99.90;;;;;;5043228;28;20130;-44
2022/06/24 00:11:45;;;;;;;28.52;25.83;;;21.80;99.90;;;;;;5044594;28;20083;-47
2022/06/24 00:14:13;;;;;;;27.90;25.30;;;21.70;99.90;;;;;;5043531;28;20061;-48
2022/06/24 00:17:04;;;;;;;29.17;26.23;;;21.50;99.90;;;;;;5045316;28;20118;-50
2022/06/24 00:19:34;;;;;;;27.73;25.05;;;21.40;99.90;;;;;;5024949;28;20053;-46
2022/06/24 00:22:12;;;;;;;30.15;27.42;;;21.40;99.90;;;;;;5023240;28;20053;-47
2022/06/24 00:24:40;;;;;;;27.70;25.20;;;21.30;99.90;;;;;;5024153;28;20092;-47
2022/06/24 00:27:24;;;;;;;29.67;26.65;;;21.30;99.90;;;;;;5024841;28;20053;-47
2022/06/24 00:29:51;;;;;;;29.55;26.30;;;21.20;99.90;;;;;;5024952;28;20059;-46
2022/06/24 00:32:38;;;;;;;29.05;26.23;;;21.10;99.90;;;;;;5020029;28;20103;-43
2022/06/24 00:35:06;;;;;;;29.65;26.75;;;21.10;99.90;;;;;;5017876;28;20061;-47
2022/06/24 00:37:34;;;;;;;29.75;26.88;;;21.10;99.90;;;;;;5020874;28;20045;-44
2022/06/24 00:40:12;;;;;;;28.85;26.13;;;21.00;99.90;;;;;;5007098;28;20058;-45
2022/06/24 00:42:46;;;;;;;28.85;26.10;;;20.90;99.90;;;;;;5014183;28;20136;-48
2022/06/24 00:45:26;;;;;;;27.85;25.00;;;20.80;99.90;;;;;;5024713;28;20178;-48
2022/06/24 00:47:55;;;;;;;28.42;25.30;;;20.80;99.90;;;;;;5022551;28;20156;-49
2022/06/24 00:50:29;;;;;;;30.95;25.35;;;20.70;99.90;;;;;;5023143;28;20058;-47
2022/06/24 00:52:57;;;;;;;30.73;27.63;;;20.70;99.90;;;;;;5022650;28;20488;-47
2022/06/24 00:55:28;;;;;;;29.10;26.38;;;20.70;99.90;;;;;;5024154;28;20052;-46
2022/06/24 00:57:55;;;;;;;29.17;26.38;;;20.60;99.90;;;;;;5024329;28;20227;-47
2022/06/24 01:00:24;;;;;;;29.92;26.88;;;20.60;99.90;;;;;;5024896;28;20049;-45
2022/06/24 01:02:57;;;;;;;30.42;27.20;;;20.60;99.90;;;;;;5024940;28;20111;-48
2022/06/24 01:05:23;;;;;;;;;;;20.60;99.90;;;;;;5025020;28;20875;-45
2022/06/24 01:07:49;;;;;;;31.08;27.77;;;20.60;99.90;;;;;;5025851;28;20430;-45
2022/06/24 01:10:15;;;;;;;36.83;29.83;;;20.60;99.90;;;;;;5026816;28;20041;-45
2022/06/24 01:12:41;;;;;;;29.02;25.98;;;20.60;99.90;;;;;;5025137;28;20500;-48
2022/06/24 01:15:08;;;;;;;29.45;26.63;;;20.60;99.90;;;;;;5024577;28;20049;-46
2022/06/24 01:17:35;;;;;;;30.13;27.50;;;20.50;99.90;;;;;;5024249;28;20128;-48
2022/06/24 01:20:01;;;;;;;29.42;26.60;;;20.50;99.90;;;;;;5023931;28;20053;-46
2022/06/24 01:22:27;;;;;;;30.92;27.88;;;20.50;99.90;;;;;;5023696;28;20055;-45
2022/06/24 01:24:54;;;;;;;29.95;27.05;;;20.50;99.90;;;;;;5016653;28;20049;-45
2022/06/24 01:27:20;;;;;;;32.03;28.75;;;20.50;99.90;;;;;;5023332;28;20095;-46
2022/06/24 01:29:46;;;;;;;32.67;29.23;;;20.50;99.90;;;;;;5022024;28;20053;-47
2022/06/24 01:32:12;;;;;;;32.47;29.05;;;20.50;99.90;;;;;;5023264;28;20490;-47
2022/06/24 01:34:39;;;;;;;31.98;28.90;;;20.50;99.90;;;;;;5012038;28;20050;-47
2022/06/24 01:37:05;;;;;;;30.35;27.55;;;20.50;99.90;;;;;;5021732;28;20411;-48
2022/06/24 01:39:31;;;;;;;28.08;25.40;;;20.50;99.90;;;;;;5018075;28;20093;-46
2022/06/24 01:41:57;;;;;;;30.10;27.38;;;20.60;99.90;;;;;;5021951;28;20045;-44
2022/06/24 01:44:24;;;;;;;28.40;24.83;;;20.60;99.90;;;;;;5023156;28;20710;-46
2022/06/24 01:46:51;;;;;;;29.25;24.83;;;20.70;99.90;;;;;;5012740;28;20049;-46
2022/06/24 01:49:17;;;;;;;27.88;25.30;;;20.70;99.90;;;;;;5004463;28;20060;-46
2022/06/24 01:51:47;;;;;;;27.33;24.40;;;20.70;99.90;;;;;;5005552;28;20049;-46
2022/06/24 01:54:13;;;;;;;27.88;25.25;;;20.70;99.90;;;;;;5023336;28;20045;-47
2022/06/24 01:56:39;;;;;;;27.20;24.70;;;20.80;99.90;;;;;;5022603;28;20056;-46
2022/06/24 01:59:05;;;;;;;26.20;23.70;;;20.80;99.90;;;;;;5022681;28;20041;-48
2022/06/24 02:01:36;;;;;;;23.88;21.42;;;20.80;99.90;;;;;;5022482;28;20107;-45
2022/06/24 02:04:02;;;;;;;24.63;21.98;;;20.80;99.90;;;;;;5022511;28;20049;-48
2022/06/24 02:06:28;;;;;;;24.80;22.45;;;20.80;99.90;;;;;;5005223;28;20127;-46
2022/06/24 02:08:56;;;;;;;24.33;22.05;;;20.80;99.90;;;;;;5023116;28;20452;-47
2022/06/24 02:14:11;;;;;;;25.15;22.83;;;20.80;99.90;;;;;;5023679;28;20461;-47
2022/06/24 02:16:39;;;;;;;24.52;22.13;;;20.80;99.90;;;;;;5036585;28;20053;-48
2022/06/24 02:19:06;;;;;;;25.98;23.25;;;20.80;99.90;;;;;;5022390;28;20061;-50
2022/06/24 02:21:33;;;;;;;25.00;22.35;;;20.80;99.90;;;;;;5022614;28;20049;-47
2022/06/24 02:23:59;;;;;;;26.00;23.52;;;20.80;99.90;;;;;;5023102;28;20054;-47
2022/06/24 02:26:26;;;;;;;24.40;21.90;;;20.70;99.90;;;;;;5022544;28;20067;-46
2022/06/24 02:28:52;;;;;;;24.30;21.70;;;20.70;99.90;;;;;;5023087;28;20053;-47
2022/06/24 02:31:19;;;;;;;27.08;24.48;;;20.70;99.90;;;;;;5022327;28;20152;-48
2022/06/24 02:33:46;;;;;;;25.85;23.23;;;20.70;99.90;;;;;;5022593;28;20048;-46
2022/06/24 02:36:13;;;;;;;27.65;23.27;;;20.60;99.90;;;;;;5023269;28;20048;-48
2022/06/24 02:38:39;;;;;;;26.98;24.27;;;20.60;99.90;;;;;;5022961;28;20128;-49
2022/06/24 02:41:05;;;;;;;26.13;23.75;;;20.50;99.90;;;;;;5003381;28;20092;-47
2022/06/24 02:43:33;;;;;;;27.20;24.60;;;20.50;99.90;;;;;;5022120;28;20089;-47
2022/06/24 02:46:04;;;;;;;26.50;23.60;;;20.40;99.90;;;;;;5022160;28;20057;-46
2022/06/24 02:48:34;;;;;;;26.23;23.63;;;20.30;99.90;;;;;;5000982;28;20058;-50
2022/06/24 02:51:02;;;;;;;27.90;25.23;;;20.20;99.90;;;;;;5022021;28;20069;-46
2022/06/24 02:53:30;;;;;;;26.48;23.65;;;20.10;99.90;;;;;;5022147;28;20055;-45
2022/06/24 02:56:01;;;;;;;26.65;24.05;;;20.10;99.90;;;;;;5020600;28;20108;-46
2022/06/24 02:58:28;;;;;;;28.63;25.77;;;20.10;99.90;;;;;;5003449;28;20680;-45
2022/06/24 03:00:54;;;;;;;28.67;25.92;;;20.10;99.90;;;;;;5020670;28;20041;-45
2022/06/24 03:03:21;;;;;;;27.77;25.27;;;20.10;99.90;;;;;;5021056;28;20410;-45
2022/06/24 03:05:48;;;;;;;30.38;27.45;;;20.10;99.90;;;;;;5021297;28;20068;-45
2022/06/24 03:08:15;;;;;;;30.13;27.08;;;20.10;99.90;;;;;;5020980;28;20049;-47
2022/06/24 03:10:42;;;;;;;28.83;26.05;;;20.10;99.90;;;;;;5020793;28;20064;-45
2022/06/24 03:13:11;;;;;;;28.13;25.27;;;20.20;99.90;;;;;;5022032;28;20056;-46
2022/06/24 03:15:38;;;;;;;29.77;26.75;;;20.30;99.90;;;;;;5022990;28;20099;-45
2022/06/24 03:18:04;;;;;;;30.08;27.15;;;20.30;99.90;;;;;;5040632;28;20048;-45
2022/06/24 03:20:31;;;;;;;28.73;26.05;;;20.30;99.90;;;;;;5062418;28;20056;-48
2022/06/24 03:22:57;;;;;;;27.33;24.80;;;20.30;99.90;;;;;;5062489;28;20053;-46
2022/06/24 03:25:24;;;;;;;27.42;24.23;;;20.30;99.90;;;;;;5056515;28;20292;-46
2022/06/24 03:27:50;;;;;;;27.05;24.20;;;20.40;99.90;;;;;;5062279;28;20047;-45
2022/06/24 03:30:21;;;;;;;24.83;22.70;;;20.30;99.90;;;;;;5043402;28;20056;-45
2022/06/24 03:32:48;;;;;;;23.40;21.27;;;20.40;99.90;;;;;;5044023;28;20048;-46
2022/06/24 03:35:13;;;;;;;24.75;22.25;;;20.40;99.90;;;;;;5062302;28;20049;-46
2022/06/24 03:37:40;;;;;;;23.27;21.02;;;20.40;99.90;;;;;;5055847;28;20057;-48
2022/06/24 03:40:06;;;;;;;23.52;21.27;;;20.50;99.90;;;;;;5062862;28;20053;-47
2022/06/24 03:42:33;;;;;;;23.83;21.63;;;20.50;99.90;;;;;;5043143;28;20114;-52
2022/06/24 03:44:59;;;;;;;22.42;20.02;;;20.60;99.90;;;;;;5062188;28;20123;-48
2022/06/24 03:47:25;;;;;;;22.35;20.08;;;20.60;99.90;;;;;;5061547;28;20056;-45
2022/06/24 03:49:51;;;;;;;23.58;19.73;;;20.70;99.90;;;;;;5061729;28;20048;-45
2022/06/24 03:52:18;;;;;;;22.80;20.40;;;20.80;99.90;;;;;;5061627;28;20126;-47
2022/06/24 03:54:43;;;;;;;21.60;19.50;;;20.80;99.90;;;;;;5063917;28;20048;-47
2022/06/24 03:57:09;;;;;;;22.83;18.88;;;20.90;99.90;;;;;;5062689;28;20048;-45
2022/06/24 03:59:35;;;;;;;20.55;16.17;;;20.90;99.90;;;;;;5044732;28;20049;-45
2022/06/24 04:02:00;;;;;;;14.55;13.05;;;20.90;99.90;;;;;;5058034;28;20076;-45
2022/06/24 04:04:26;;;;;;;13.82;12.52;;;20.80;99.90;;;;;;5059330;28;20048;-44
2022/06/24 04:06:52;;;;;;;13.40;11.88;;;20.90;99.90;;;;;;5063214;28;20466;-45
2022/06/24 04:09:18;;;;;;;13.77;10.70;;;20.80;99.90;;;;;;5064613;28;20043;-45
2022/06/24 04:11:44;;;;;;;12.70;11.43;;;20.70;99.90;;;;;;5064327;28;20284;-45
2022/06/24 04:14:10;;;;;;;12.05;10.13;;;20.50;99.90;;;;;;5062869;28;20048;-45
2022/06/24 04:16:35;;;;;;;13.85;11.07;;;20.50;99.90;;;;;;5063239;28;20313;-46
2022/06/24 04:19:02;;;;;;;12.63;11.20;;;20.40;99.90;;;;;;5063697;28;20056;-48
2022/06/24 04:21:29;;;;;;;13.43;10.00;;;20.30;99.90;;;;;;5061895;28;20052;-44
2022/06/24 04:23:55;;;;;;;13.25;10.40;;;20.30;99.90;;;;;;5062794;28;20056;-47
2022/06/24 04:26:21;;;;;;;11.88;9.02;;;20.20;99.90;;;;;;5062820;28;20048;-48
2022/06/24 04:28:49;;;;;;;10.52;9.10;;;20.20;99.90;;;;;;5063986;28;20045;-44
2022/06/24 04:31:15;;;;;;;9.52;8.52;;;20.20;99.90;;;;;;5063324;28;20052;-46
2022/06/24 04:33:41;;;;;;;10.02;8.90;;;20.20;99.90;;;;;;5062968;28;20044;-48
2022/06/24 04:36:12;;;;;;;8.75;7.57;;;20.20;99.90;;;;;;5063823;28;20113;-46
2022/06/24 04:38:38;;;;;;;7.32;6.57;;;20.30;99.90;;;;;;5043361;28;20090;-46
2022/06/24 04:41:16;;;;;;;9.65;6.22;;;20.50;99.90;;;;;;5062701;28;20502;-45
2022/06/24 04:43:42;;;;;;;5.90;5.32;;;20.70;99.90;;;;;;5062771;28;20063;-44
2022/06/24 04:46:07;;;;;;;7.22;5.75;;;20.70;99.90;;;;;;5062543;28;20052;-45
2022/06/24 04:48:34;;;;;;;5.90;5.40;;;20.50;99.90;;;;;;5062514;28;20041;-46
2022/06/24 04:51:00;;;;;;;5.75;4.80;;;20.50;99.90;;;;;;5063104;28;20047;-44
2022/06/24 04:53:26;;;;;;;5.05;4.60;;;20.30;99.90;;;;;;5044688;28;20097;-48
2022/06/24 04:55:52;;;;;;;7.90;5.28;;;20.20;99.90;;;;;;5024311;28;20048;-45
2022/06/24 04:58:17;;;;;;;5.28;4.78;;;20.20;99.90;;;;;;5062248;28;20036;-45
2022/06/24 05:00:43;;;;;;;5.93;5.05;;;20.10;99.90;;;;;;5064864;28;20090;-46
2022/06/24 05:03:09;;;;;;;6.43;4.85;;;20.10;99.90;;;;;;5066650;28;20087;-45
2022/06/24 05:05:35;;;;;;;5.97;5.28;;;20.00;99.90;;;;;;5062590;28;20344;-51
2022/06/24 05:08:01;;;;;;;7.15;4.80;;;20.00;99.90;;;;;;5063382;28;20532;-47
2022/06/24 05:10:26;;;;;;;5.18;4.25;;;20.00;99.90;;;;;;5062337;28;20041;-47
2022/06/24 05:12:52;;;;;;;5.50;4.97;;;20.00;99.90;;;;;;5060811;28;20048;-44
2022/06/24 05:15:23;;;;;;;5.57;4.65;;;20.10;99.90;;;;;;5062520;28;20051;-47
2022/06/24 05:17:49;;;;;;;8.00;5.45;;;20.20;99.90;;;;;;5047759;28;20058;-48
2022/06/24 05:20:15;;;;;;;7.15;4.80;;;20.40;99.90;;;;;;5008356;28;20050;-45
2022/06/24 05:22:41;;;;;;;6.22;4.90;;;20.50;99.90;;;;;;5021392;28;20053;-46
2022/06/24 05:25:07;;;;;;;6.45;4.80;;;20.60;99.90;;;;;;5015077;28;20060;-43
2022/06/24 05:27:33;;;;;;;5.68;4.70;;;20.70;99.90;;;;;;5021901;28;20081;-45
2022/06/24 05:30:00;;;;;;;5.10;4.60;;;20.70;99.90;;;;;;5021203;28;20120;-48
2022/06/24 05:32:26;;;;;;;8.10;5.22;;;20.80;99.90;;;;;;5035070;28;20140;-47
2022/06/24 05:34:51;;;;;;;6.72;4.68;;;20.70;99.90;;;;;;5021784;28;20072;-47
2022/06/24 05:37:17;;;;;;;6.57;4.93;;;20.70;99.90;;;;;;5017515;28;20050;-43
2022/06/24 05:39:43;;;;;;;6.20;4.90;;;20.70;99.90;;;;;;5032998;28;20053;-44
2022/06/24 05:42:09;;;;;;;6.13;4.93;;;20.60;99.90;;;;;;5008715;28;20057;-47
2022/06/24 05:44:34;;;;;;;5.75;4.68;;;20.50;99.90;;;;;;5021638;28;20049;-45
2022/06/24 05:47:00;;;;;;;7.05;5.10;;;20.40;99.90;;;;;;5023476;28;20171;-46
2022/06/24 05:49:26;;;;;;;6.93;5.70;;;20.40;99.90;;;;;;5042352;28;20583;-49
2022/06/24 05:51:52;;;;;;;7.82;5.05;;;20.40;99.90;;;;;;5041577;28;20622;-45
2022/06/24 05:57:03;;;;;;;6.60;5.15;;;20.40;99.90;;;;;;5042160;28;20075;-47
2022/06/24 05:59:29;;;;;;;6.80;5.32;;;20.30;99.90;;;;;;5041642;28;20143;-45
2022/06/24 06:01:55;;;;;;;6.70;5.10;;;20.40;99.90;;;;;;5044598;28;20540;-46
2022/06/24 06:04:21;;;;;;;6.47;5.88;;;20.40;99.90;;;;;;5023209;28;20065;-47
2022/06/24 06:06:47;;;;;;;5.90;4.95;;;20.40;99.90;;;;;;5041904;28;20407;-44
2022/06/24 06:09:14;;;;;;;7.07;5.40;;;20.40;99.90;;;;;;5039288;28;20395;-45
2022/06/24 06:11:39;;;;;;;5.55;5.05;;;20.40;99.90;;;;;;5038141;28;20102;-48
2022/06/24 06:14:05;;;;;;;6.40;5.00;;;20.30;99.90;;;;;;5034715;28;20506;-45
2022/06/24 06:16:31;;;;;;;6.22;5.32;;;20.30;99.90;;;;;;5041826;28;20049;-45
2022/06/24 06:18:56;;;;;;;7.80;5.95;;;20.30;99.90;;;;;;5044038;28;20072;-46
2022/06/24 06:21:22;;;;;;;6.57;5.97;;;20.30;99.90;;;;;;5042807;28;20107;-46
2022/06/24 06:23:48;;;;;;;7.38;6.18;;;20.30;99.90;;;;;;5040577;28;20051;-43
2022/06/24 06:26:14;;;;;;;9.00;7.18;;;20.30;99.90;;;;;;5026337;28;20064;-47
2022/06/24 06:28:41;;;;;;;12.43;6.90;;;20.30;99.90;;;;;;5042716;28;20088;-47
2022/06/24 06:31:08;;;;;;;9.48;6.65;;;20.30;99.90;;;;;;5040807;28;20580;-50
2022/06/24 06:33:34;;;;;;;8.95;6.72;;;20.40;99.90;;;;;;5036366;28;20136;-46
2022/06/24 06:36:04;;;;;;;10.18;7.38;;;20.40;99.90;;;;;;5041242;28;20045;-48
2022/06/24 06:38:29;;;;;;;8.90;7.18;;;20.40;99.90;;;;;;5040850;28;20045;-44
2022/06/24 06:40:55;;;;;;;11.18;8.00;;;20.40;99.90;;;;;;5040748;28;20036;-45
2022/06/24 06:43:21;;;;;;;10.98;7.65;;;20.30;99.90;;;;;;5038134;28;20053;-46
2022/06/24 06:45:47;;;;;;;8.70;7.60;;;20.30;99.90;;;;;;5042181;28;20090;-44
2022/06/24 06:48:12;;;;;;;10.10;7.32;;;20.30;99.90;;;;;;5026286;28;20057;-46
2022/06/24 06:50:39;;;;;;;9.98;7.53;;;20.30;99.90;;;;;;5022004;28;20064;-47
2022/06/24 06:53:05;;;;;;;11.50;7.80;;;20.40;99.90;;;;;;5003759;28;20049;-48
2022/06/24 06:55:31;;;;;;;9.27;7.80;;;20.40;99.90;;;;;;5022090;28;20037;-45
2022/06/24 06:57:57;;;;;;;10.52;8.55;;;20.40;99.90;;;;;;5022791;28;20498;-46
2022/06/24 07:00:23;;;;;;;11.40;7.40;;;20.40;99.90;;;;;;5023125;28;20053;-46
2022/06/24 07:02:49;;;;;;;9.55;7.72;;;20.40;99.90;;;;;;5022841;28;20053;-47
2022/06/24 07:05:15;;;;;;;10.55;8.40;;;20.40;99.90;;;;;;5023492;28;20052;-47
2022/06/24 07:07:40;;;;;;;11.80;7.80;;;20.40;99.90;;;;;;5020408;28;20200;-49
2022/06/24 07:10:12;;;;;;;11.98;9.02;;;20.40;99.90;;;;;;5021333;28;20081;-47
2022/06/24 07:12:38;;;;;;;9.45;8.55;;;20.50;99.90;;;;;;5018983;28;20574;-47
2022/06/24 07:15:04;;;;;;;9.02;7.55;;;20.40;99.90;;;;;;5022064;28;20041;-48
2022/06/24 07:17:29;;;;;;;9.68;8.45;;;20.40;99.90;;;;;;5022208;28;20038;-45
2022/06/24 07:19:55;;;;;;;11.68;8.85;;;20.30;99.90;;;;;;5022425;28;20509;-49
2022/06/24 07:22:21;;;;;;;11.27;9.02;;;20.30;99.90;;;;;;5022301;28;20049;-46
2022/06/24 07:24:47;;;;;;;9.80;8.98;;;20.30;99.90;;;;;;5021108;28;20048;-47
2022/06/24 07:27:13;;;;;;;11.00;9.18;;;20.30;99.90;;;;;;5021248;28;20053;-46
2022/06/24 07:29:39;;;;;;;11.32;9.38;;;20.30;99.90;;;;;;5012657;28;20057;-43
2022/06/24 07:32:06;;;;;;;10.68;9.20;;;20.30;99.90;;;;;;5025344;28;20486;-45
2022/06/24 07:34:33;;;;;;;9.07;8.07;;;20.30;99.90;;;;;;5025939;28;20128;-44
2022/06/24 07:37:00;;;;;;;9.07;7.95;;;20.40;99.90;;;;;;5024231;28;20423;-46
2022/06/24 07:39:33;;;;;;;11.27;8.50;;;20.40;99.90;;;;;;5019900;28;20045;-47
2022/06/24 07:41:59;;;;;;;9.82;8.82;;;20.40;99.90;;;;;;5006151;28;20147;-47
2022/06/24 07:44:26;;;;;;;9.48;8.45;;;20.50;99.90;;;;;;5007398;28;20140;-46
2022/06/24 07:46:52;;;;;;;11.70;8.30;;;20.50;99.90;;;;;;5025129;28;20119;-48
2022/06/24 07:49:19;;;;;;;8.90;8.00;;;20.60;99.90;;;;;;5024990;28;20069;-44
2022/06/24 07:51:44;;;;;;;10.43;8.63;;;20.70;99.90;;;;;;5024710;28;20057;-46
2022/06/24 07:54:11;;;;;;;9.40;7.10;;;20.70;99.90;;;;;;5024887;28;20042;-48
2022/06/24 07:56:57;;;;;;;10.23;8.13;;;20.70;99.90;;;;;;5006863;28;20259;-48
2022/06/24 07:59:31;;;;;;;8.27;7.47;;;20.80;99.90;;;;;;5006595;28;20050;-45
2022/06/24 08:01:59;;;;;;;11.13;9.10;;;20.80;99.90;;;;;;5021335;28;20089;-48
2022/06/24 08:04:27;;;;;;;9.52;8.73;;;20.70;99.90;;;;;;5024960;28;20239;-47
2022/06/24 08:06:55;;;;;;;10.15;8.32;;;20.70;99.90;;;;;;5024591;28;20055;-49
2022/06/24 08:09:25;;;;;;;9.40;8.50;;;20.80;99.90;;;;;;5024863;28;20136;-47
2022/06/24 08:11:52;;;;;;;11.93;9.32;;;20.80;99.90;;;;;;5006038;28;20133;-45
2022/06/24 08:14:19;;;;;;;10.75;9.60;;;20.80;99.90;;;;;;5024526;28;20442;-48
2022/06/24 08:16:45;;;;;;;10.80;9.80;;;20.80;99.90;;;;;;5024454;28;20184;-45
2022/06/24 08:19:11;;;;;;;13.07;9.05;;;20.70;99.90;;;;;;4985880;28;20078;-45
2022/06/24 08:21:38;;;;;;;10.38;9.35;;;20.70;99.90;;;;;;5022248;28;20115;-46
2022/06/24 08:24:09;;;;;;;9.00;8.10;;;20.70;99.90;;;;;;5003467;28;20049;-47
2022/06/24 08:26:35;;;;;;;10.90;8.52;;;20.60;99.90;;;;;;5022455;28;20559;-47
2022/06/24 08:29:02;;;;;;;10.00;8.40;;;20.50;99.90;;;;;;5023184;28;20370;-51
2022/06/24 08:31:28;;;;;;;10.00;7.90;;;20.40;99.90;;;;;;5021182;28;20103;-47
2022/06/24 08:33:54;;;;;;;9.73;8.75;;;20.30;99.90;;;;;;5000179;28;20081;-46
2022/06/24 08:36:24;;;;;;;10.57;8.43;;;20.30;99.90;;;;;;5021534;28;20045;-47
2022/06/24 08:38:51;;;;;;;10.63;9.55;;;20.30;99.90;;;;;;5021532;28;20056;-48
2022/06/24 08:41:22;;;;;;;10.07;8.98;;;20.20;99.90;;;;;;5016576;28;20042;-48
2022/06/24 08:43:53;;;;;;;8.98;7.97;;;20.10;99.90;;;;;;4988862;28;20056;-44
2022/06/24 08:46:20;;;;;;;10.50;7.60;;;20.10;99.90;;;;;;5023971;28;20060;-45
2022/06/24 08:48:47;;;;;;;19.73;10.07;;;20.00;99.90;;;;;;5027344;28;20080;-47
2022/06/24 08:51:13;;;;;;;14.60;5.90;;;19.90;99.90;;;;;;5023230;28;20049;-46
2022/06/24 08:53:40;;;;;;;7.90;5.35;;;19.70;99.90;;;;;;5004278;28;20373;-45
2022/06/24 08:56:07;;;;;;;10.07;5.90;;;19.50;99.90;;;;;;5024098;28;20971;-48
2022/06/24 08:58:34;;;;;;;9.88;5.85;;;19.40;99.90;;;;;;5005695;28;20132;-46
2022/06/24 09:01:00;;;;;;;10.50;6.50;;;19.30;99.90;;;;;;5024110;28;20664;-44
2022/06/24 09:03:27;;;;;;;11.43;6.15;;;19.30;99.90;;;;;;5005360;28;20057;-45
2022/06/24 09:05:53;;;;;;;8.75;6.07;;;19.20;99.90;;;;;;5022583;28;20080;-45
2022/06/24 09:08:19;;;;;;;9.35;6.88;;;19.10;99.90;;;;;;5004170;28;20492;-46
2022/06/24 09:11:06;;;;;;;12.80;7.05;;;19.10;99.90;;;;;;5023176;28;20759;-45
2022/06/24 09:13:55;;;;;;;12.25;7.88;;;19.00;99.90;;;;;;5023543;28;20066;-48
2022/06/24 09:16:24;;;;;;;11.90;7.72;;;19.00;99.90;;;;;;5022961;28;20060;-43
2022/06/24 09:18:59;;;;;;;9.90;7.78;;;18.80;99.90;;;;;;5005335;28;20511;-47
2022/06/24 09:21:30;;;;;;;11.13;8.18;;;18.80;99.90;;;;;;5003414;28;20135;-45
2022/06/24 09:23:59;;;;;;;9.85;7.38;;;18.80;99.90;;;;;;5013144;28;20076;-45
2022/06/24 09:26:36;;;;;;;10.13;7.68;;;18.80;99.90;;;;;;5021447;28;20128;-47
2022/06/24 09:29:06;;;;;;;15.10;7.80;;;18.80;99.90;;;;;;5021760;28;20041;-46
2022/06/24 09:31:32;;;;;;;10.05;7.60;;;18.80;99.90;;;;;;5021969;28;20059;-45
2022/06/24 09:34:17;;;;;;;11.32;8.18;;;18.80;99.90;;;;;;5020133;28;20162;-46
2022/06/24 09:36:46;;;;;;;10.82;7.70;;;18.80;99.90;;;;;;5020655;28;20056;-44
2022/06/24 09:39:16;;;;;;;12.40;7.47;;;18.80;99.90;;;;;;4985041;28;20439;-43
2022/06/24 09:41:50;;;;;;;13.45;7.35;;;18.80;99.90;;;;;;5019863;28;20084;-45
2022/06/24 09:44:19;;;;;;;9.82;7.22;;;18.80;99.90;;;;;;5018302;28;20603;-46
2022/06/24 09:46:45;;;;;;;8.00;7.05;;;18.80;99.90;;;;;;5019523;28;20038;-45
2022/06/24 09:49:17;;;;;;;9.60;7.57;;;18.80;99.90;;;;;;5037863;28;20532;-48
2022/06/24 09:51:44;;;;;;;14.57;8.18;;;18.80;99.90;;;;;;5036423;28;20102;-47
2022/06/24 09:54:17;;;;;;;11.65;8.13;;;18.80;99.90;;;;;;5038457;28;20052;-48
2022/06/24 09:56:44;;;;;;;8.82;7.05;;;18.80;99.90;;;;;;5032396;28;20672;-45
2022/06/24 10:02:04;;;;;;;8.70;5.88;;;18.90;99.90;;;;;;5038027;28;20052;-49
2022/06/24 10:04:32;;;;;;;7.75;5.22;;;19.00;99.90;;;;;;5039204;28;20063;-46
2022/06/24 10:06:57;;;;;;;7.35;5.53;;;18.90;99.90;;;;;;5039431;28;20068;-44
2022/06/24 10:09:32;;;;;;;8.13;5.78;;;18.90;99.90;;;;;;5044084;28;20435;-51
2022/06/24 10:11:58;;;;;;;8.57;5.40;;;18.90;99.90;;;;;;5050916;28;20093;-49
2022/06/24 10:14:29;;;;;;;6.70;5.00;;;18.90;99.90;;;;;;5039824;28;20052;-47
2022/06/24 10:16:57;;;;;;;7.07;4.97;;;18.90;99.90;;;;;;5040885;28;20527;-49
2022/06/24 10:19:25;;;;;;;6.43;5.80;;;18.90;99.90;;;;;;5037020;28;20049;-46
2022/06/24 10:21:51;;;;;;;8.93;6.72;;;18.90;99.90;;;;;;5039541;28;20102;-48
2022/06/24 10:24:18;;;;;;;7.72;6.47;;;19.00;99.90;;;;;;5042184;28;20053;-45
2022/06/24 10:26:55;;;;;;;7.20;5.88;;;19.00;99.90;;;;;;5040473;28;20161;-48
2022/06/24 10:29:28;;;;;;;8.55;7.70;;;19.10;99.90;;;;;;5040600;28;20131;-46
2022/06/24 10:31:59;;;;;;;7.18;6.53;;;19.20;99.90;;;;;;5040653;28;20044;-45
2022/06/24 10:34:25;;;;;;;7.05;6.43;;;19.30;99.90;;;;;;5042075;28;20048;-47
2022/06/24 10:37:12;;;;;;;7.30;6.60;;;19.30;99.90;;;;;;5040897;28;20044;-46
2022/06/24 10:39:53;;;;;;;8.02;7.22;;;19.40;99.90;;;;;;5027260;28;20061;-50
2022/06/24 10:42:21;;;;;;;8.10;7.32;;;19.50;99.90;;;;;;5041377;28;20849;-51
2022/06/24 10:45:02;;;;;;;11.57;8.68;;;19.60;99.90;;;;;;5041264;28;20195;-45
2022/06/24 10:47:35;;;;;;;8.93;8.23;;;19.70;99.90;;;;;;5041111;28;20055;-46
2022/06/24 10:50:02;;;;;;;10.77;9.65;;;19.90;99.90;;;;;;5041076;28;20117;-48
2022/06/24 10:52:39;;;;;;;10.68;9.23;;;20.10;99.90;;;;;;5040820;28;20048;-46
2022/06/24 10:55:17;;;;;;;12.38;11.18;;;20.30;99.90;;;;;;5048369;28;20419;-49
2022/06/24 10:58:04;;;;;;;16.95;15.25;;;20.50;99.90;;;;;;5037987;28;20140;-48
2022/06/24 11:00:39;;;;;;;19.73;18.08;;;20.70;99.90;;;;;;5040822;28;20860;-47
2022/06/24 11:03:05;;;;;;;24.80;19.92;;;20.80;99.90;;;;;;5040536;28;20082;-48
2022/06/24 11:05:36;;;;;;;23.95;22.00;;;20.90;99.90;;;;;;5036453;28;20155;-48
2022/06/24 11:08:09;;;;;;;23.88;21.88;;;21.00;99.90;;;;;;5041284;28;20469;-45
2022/06/24 11:10:35;;;;;;;24.35;22.35;;;21.00;99.90;;;;;;5037875;28;20045;-47
2022/06/24 11:13:03;;;;;;;23.25;21.05;;;21.20;99.90;;;;;;5038815;28;20415;-47
2022/06/24 11:15:37;;;;;;;24.23;22.23;;;21.30;99.90;;;;;;5040776;28;20056;-45
2022/06/24 11:18:13;;;;;;;24.70;22.60;;;21.30;99.90;;;;;;5037621;28;20056;-47
2022/06/24 11:20:45;;;;;;;22.48;20.45;;;21.40;99.90;;;;;;5040446;28;20054;-48
2022/06/24 11:23:14;;;;;;;22.48;20.65;;;21.50;99.90;;;;;;5039395;28;20462;-49
2022/06/24 11:25:46;;;;;;;24.42;21.95;;;21.80;99.90;;;;;;5040597;28;20847;-46
2022/06/24 11:28:26;;;;;;;23.42;21.27;;;22.00;99.90;;;;;;5040848;28;20060;-44
2022/06/24 11:30:55;;;;;;;22.08;20.27;;;22.30;99.90;;;;;;5036628;28;20056;-48
2022/06/24 11:33:22;;;;;;;22.15;20.08;;;22.50;99.90;;;;;;5036541;28;20044;-48
2022/06/24 11:35:49;;;;;;;23.58;21.50;;;22.70;99.90;;;;;;5039674;28;20210;-44
2022/06/24 11:38:19;;;;;;;22.77;20.83;;;22.80;99.90;;;;;;5054611;28;20053;-50
2022/06/24 11:40:46;;;;;;;20.27;18.48;;;23.00;99.90;;;;;;5037641;28;20770;-49
2022/06/24 11:43:15;;;;;;;21.00;19.00;;;23.20;99.90;;;;;;5039461;28;20106;-49
2022/06/24 11:45:43;;;;;;;20.80;19.05;;;23.30;99.90;;;;;;5040321;28;20053;-49
2022/06/24 11:48:12;;;;;;;18.67;16.90;;;23.30;99.90;;;;;;5039722;28;20057;-49
2022/06/24 11:50:39;;;;;;;19.33;17.50;;;23.30;99.90;;;;;;5039278;28;20041;-47
2022/06/24 11:53:07;;;;;;;17.63;15.95;;;23.20;99.90;;;;;;5038125;28;20509;-49
2022/06/24 11:55:41;;;;;;;18.95;17.33;;;23.20;99.90;;;;;;5039440;28;20045;-47
2022/06/24 11:58:11;;;;;;;18.73;17.13;;;23.20;99.90;;;;;;5039646;28;20041;-50
2022/06/24 12:00:38;;;;;;;19.05;17.25;;;23.20;99.90;;;;;;5038777;28;20045;-46
2022/06/24 12:03:10;;;;;;;20.38;18.48;;;23.20;99.90;;;;;;5041025;28;20064;-47
2022/06/24 12:05:41;;;;;;;20.20;18.13;;;23.20;99.90;;;;;;5034264;28;20751;-48
2022/06/24 12:08:08;;;;;;;17.93;16.17;;;23.20;99.90;;;;;;5034072;28;20100;-47
2022/06/24 12:10:47;;;;;;;18.75;17.08;;;23.20;99.90;;;;;;5037976;28;20392;-47
2022/06/24 12:13:27;;;;;;;20.63;18.63;;;23.20;99.90;;;;;;5036429;28;20056;-45
2022/06/24 12:15:54;;;;;;;16.67;14.93;;;23.40;99.90;;;;;;5030986;28;20494;-50
2022/06/24 12:18:22;;;;;;;17.02;15.20;;;23.40;99.90;;;;;;5041270;28;20483;-45
2022/06/24 12:20:59;;;;;;;19.23;17.35;;;23.50;99.90;;;;;;5042993;28;20072;-48
2022/06/24 12:23:32;;;;;;;16.63;13.93;;;23.50;99.90;;;;;;5043490;28;20048;-46
2022/06/24 12:25:58;;;;;;;;;;;23.50;99.90;;;;;;5028512;28;20116;-46
2022/06/24 12:28:27;;;;;;;15.25;13.90;;;23.40;99.90;;;;;;5044684;28;19944;-47
2022/06/24 12:31:05;;;;;;;16.45;14.75;;;23.40;99.90;;;;;;5037588;28;20547;-47
2022/06/24 12:33:48;;;;;;;15.00;13.38;;;23.30;99.90;;;;;;5030488;28;20057;-46
2022/06/24 12:36:15;;;;;;;14.20;12.85;;;23.40;99.90;;;;;;5032107;28;20072;-46
2022/06/24 12:38:56;;;;;;;13.07;11.80;;;23.30;99.90;;;;;;5043673;28;20070;-46
2022/06/24 12:41:23;;;;;;;14.60;12.93;;;23.20;99.90;;;;;;5038688;28;20840;-52
2022/06/24 12:43:59;;;;;;;12.48;11.18;;;23.30;99.90;;;;;;5043465;28;20072;-46
2022/06/24 12:46:34;;;;;;;15.25;13.73;;;23.30;99.90;;;;;;5038958;28;20135;-49
2022/06/24 12:51:56;;;;;;;17.20;15.48;;;23.60;99.90;;;;;;5043077;28;20049;-45
2022/06/24 12:54:21;;;;;;;17.15;15.38;;;23.80;99.90;;;;;;5044415;28;20080;-46